Información del aeropuerto EGLC

Información de pista
Pista 10 Longitud 4948 ft Anchura 98 ft
Elevación 16 ft Umbral 358 ft Rumbo 93
Pista 28 Longitud 4948 ft Anchura 98 ft
Elevación 19 ft Umbral 211 ft Rumbo 273
Frecuencias del aeropuerto
Tipo APP Nombre APP Frecuencia 132.7 MHZ
Tipo ATIS Nombre ATIS Frecuencia 136.35 MHZ
Tipo GND Nombre GND Frecuencia 121.825 MHZ
Tipo TWR Nombre TWR Frecuencia 118.075 MHZ
Radioayudas del aeropuerto
Tipo NDB Nombre City Frecuencia 322 KHZ
Información meteorológica del aeropuerto y NOTAM
ADDS - METARS form results

(0008 UTC 20 September 2020)
Data provider http://aviationweather.gov/metar/data/
 
METAR text: EGLC 192350Z AUTO 06006KT 010V100 9999 NCD 16/12 Q1018
Conditions at: EGLC (LONDON CITY AIRP, GB) observed 2350 UTC 19 September 2020
Temperature: 16.0°C (61°F)
Dewpoint: 12.0°C (54°F) [RH = 77%]
Pressure (altimeter): 30.06 inches Hg (1018.0 mb)
Winds: from the ENE (60 degrees) at 7 MPH (6 knots; 3.1 m/s)
Visibility: 6 or more miles (10+ km)
Ceiling: at least 12,000 feet AGL
Clouds: sky clear below 12,000 feet AGL
Weather: no significant weather observed at this time

METAR text: EGLC 192320Z AUTO 05005KT 310V100 9999 NCD 16/12 Q1018
Conditions at: EGLC (LONDON CITY AIRP, GB) observed 2320 UTC 19 September 2020
Temperature: 16.0°C (61°F)
Dewpoint: 12.0°C (54°F) [RH = 77%]
Pressure (altimeter): 30.06 inches Hg (1018.0 mb)
Winds: from the NE (50 degrees) at 6 MPH (5 knots; 2.6 m/s)
Visibility: 6 or more miles (10+ km)
Ceiling: at least 12,000 feet AGL
Clouds: sky clear below 12,000 feet AGL
Weather: no significant weather observed at this time